Time;durP1;ratioP1;P1;durP2;ratioP2;P2;SDS_P1;SDS_P2;PMS_P1;PMS_P2;Temp;Humidity;BMP_temperature;BMP_pressure;BME280_temperature;BME280_humidity;BME280_pressure;Samples;Min_cycle;Max_cycle;Signal;HPM_P1;HPM_P2
2022/01/12 00:00:53;;;;;;;41.42;23.00;;;;;;;;;;5021997;28;20220;-78
2022/01/12 00:03:19;;;;;;;36.42;20.45;;;;;;;;;;5021811;28;20682;-78
2022/01/12 00:05:45;;;;;;;40.08;20.58;;;;;;;;;;5022269;28;20177;-78
2022/01/12 00:08:11;;;;;;;37.92;21.02;;;;;;;;;;5022088;28;20178;-78
2022/01/12 00:10:38;;;;;;;35.20;21.33;;;;;;;;;;5023148;28;20271;-78
2022/01/12 00:13:04;;;;;;;38.55;21.58;;;;;;;;;;5020629;28;20662;-78
2022/01/12 00:15:30;;;;;;;35.50;20.90;;;;;;;;;;5021211;28;20218;-78
2022/01/12 00:17:56;;;;;;;35.95;21.30;;;;;;;;;;5019014;28;20178;-77
2022/01/12 00:20:22;;;;;;;36.97;20.77;;;;;;;;;;5013071;28;20210;-77
2022/01/12 00:22:51;;;;;;;38.20;20.38;;;;;;;;;;5021591;28;21424;-78
2022/01/12 00:33:14;;;;;;;39.22;21.08;;;;;;;;;;5020280;28;20208;-79
2022/01/12 00:35:40;;;;;;;37.08;21.75;;;;;;;;;;5021785;28;20178;-79
2022/01/12 00:38:07;;;;;;;36.65;20.77;;;;;;;;;;5021348;28;20190;-78
2022/01/12 00:40:33;;;;;;;42.15;23.05;;;;;;;;;;5021243;28;20238;-79
2022/01/12 00:42:59;;;;;;;41.05;21.60;;;;;;;;;;5020109;28;20171;-78
2022/01/12 00:45:26;;;;;;;36.08;23.30;;;;;;;;;;5021001;28;20186;-78
2022/01/12 00:47:52;;;;;;;43.45;23.73;;;;;;;;;;5020777;28;20432;-78
2022/01/12 00:50:18;;;;;;;41.40;22.77;;;;;;;;;;5022028;28;20336;-78
2022/01/12 00:52:44;;;;;;;38.22;21.85;;;;;;;;;;5020862;28;20901;-78
2022/01/12 00:55:10;;;;;;;45.30;23.02;;;;;;;;;;5021967;28;20189;-79
2022/01/12 00:57:36;;;;;;;42.53;24.00;;;;;;;;;;5020658;28;20197;-78
2022/01/12 01:00:03;;;;;;;48.28;24.75;;;;;;;;;;5021352;28;20186;-78
2022/01/12 01:02:29;;;;;;;35.95;22.42;;;;;;;;;;5021670;28;20182;-78
2022/01/12 01:04:56;;;;;;;39.85;21.70;;;;;;;;;;5022179;28;20570;-78
2022/01/12 01:07:22;;;;;;;39.80;23.17;;;;;;;;;;5026983;28;20254;-78
2022/01/12 01:09:58;;;;;;;38.83;24.58;;;;;;;;;;5023155;28;20194;-79
2022/01/12 01:12:24;;;;;;;46.03;22.38;;;;;;;;;;5024580;28;20182;-79
2022/01/12 01:15:04;;;;;;;40.67;22.20;;;;;;;;;;5023581;28;20194;-79
2022/01/12 01:25:34;;;;;;;44.42;24.25;;;;;;;;;;5022622;28;20352;-79
2022/01/12 01:28:01;;;;;;;34.20;20.20;;;;;;;;;;5024481;28;20197;-79
2022/01/12 01:30:27;;;;;;;48.45;23.77;;;;;;;;;;5023534;28;20190;-78
2022/01/12 01:32:55;;;;;;;41.22;23.95;;;;;;;;;;5025192;28;20186;-79
2022/01/12 01:35:24;;;;;;;36.40;22.30;;;;;;;;;;5025100;28;20186;-80
2022/01/12 01:37:50;;;;;;;40.75;22.20;;;;;;;;;;5022944;28;20219;-79
2022/01/12 01:40:17;;;;;;;39.37;22.83;;;;;;;;;;5025005;28;20714;-78
2022/01/12 01:43:07;;;;;;;41.72;21.33;;;;;;;;;;5024749;28;20441;-79
2022/01/12 01:53:47;;;;;;;41.00;21.52;;;;;;;;;;5022423;28;20201;-79
2022/01/12 01:56:13;;;;;;;38.53;20.65;;;;;;;;;;5024123;28;20190;-79
2022/01/12 01:58:39;;;;;;;34.65;20.25;;;;;;;;;;5025030;28;20205;-79
2022/01/12 02:01:05;;;;;;;37.33;21.85;;;;;;;;;;5024932;28;20256;-79
2022/01/12 02:03:32;;;;;;;38.72;22.15;;;;;;;;;;5022656;28;20182;-78
2022/01/12 02:06:03;;;;;;;41.25;22.27;;;;;;;;;;5024516;28;20202;-79
2022/01/12 02:08:29;;;;;;;36.83;19.92;;;;;;;;;;5023403;28;20182;-79
2022/01/12 02:10:56;;;;;;;40.03;22.88;;;;;;;;;;5021949;28;20279;-79
2022/01/12 02:13:23;;;;;;;39.78;22.73;;;;;;;;;;5024639;28;20182;-79
2022/01/12 02:15:49;;;;;;;42.70;21.45;;;;;;;;;;5023077;28;20668;-79
2022/01/12 02:40:19;;;;;;;40.55;21.25;;;;;;;;;;5010336;28;20230;-79
2022/01/12 02:42:49;;;;;;;41.65;23.35;;;;;;;;;;4985970;28;20218;-78
2022/01/12 02:51:13;;;;;;;41.08;23.13;;;;;;;;;;4987370;28;20223;-79
2022/01/12 02:53:41;;;;;;;37.28;19.90;;;;;;;;;;4986266;28;20298;-78
2022/01/12 02:56:11;;;;;;;36.55;21.50;;;;;;;;;;4967571;28;20264;-79
2022/01/12 02:58:38;;;;;;;43.72;21.67;;;;;;;;;;4969206;28;20196;-79
2022/01/12 03:03:42;;;;;;;38.35;21.02;;;;;;;;;;4987640;28;20340;-78
2022/01/12 03:06:09;;;;;;;40.85;19.92;;;;;;;;;;4965523;28;20825;-78
2022/01/12 03:08:37;;;;;;;38.08;22.33;;;;;;;;;;4970103;28;20210;-78
2022/01/12 03:11:05;;;;;;;39.45;21.20;;;;;;;;;;4967936;28;20199;-78
2022/01/12 03:13:31;;;;;;;37.30;21.38;;;;;;;;;;4961003;28;20203;-79
2022/01/12 03:15:57;;;;;;;41.22;20.40;;;;;;;;;;4970458;28;20198;-78
2022/01/12 03:18:23;;;;;;;36.95;20.33;;;;;;;;;;4970890;28;20323;-78
2022/01/12 03:20:50;;;;;;;43.97;23.92;;;;;;;;;;4986775;28;20266;-78
2022/01/12 03:23:16;;;;;;;41.20;23.55;;;;;;;;;;4968374;28;20223;-79
2022/01/12 03:25:43;;;;;;;49.85;21.70;;;;;;;;;;4984477;28;20218;-78
2022/01/12 03:28:09;;;;;;;37.45;21.67;;;;;;;;;;4991772;28;20171;-78
2022/01/12 03:31:22;;;;;;;40.58;21.92;;;;;;;;;;4991208;28;20179;-78
2022/01/12 03:33:50;;;;;;;42.55;21.63;;;;;;;;;;5001757;28;20262;-78
2022/01/12 03:38:53;;;;;;;38.75;21.60;;;;;;;;;;5004819;28;20218;-79
2022/01/12 03:41:19;;;;;;;45.45;24.15;;;;;;;;;;5003787;28;20218;-78
2022/01/12 03:43:45;;;;;;;37.00;21.75;;;;;;;;;;4987309;28;20167;-79
2022/01/12 03:46:12;;;;;;;43.65;23.05;;;;;;;;;;4991743;28;20179;-78
2022/01/12 03:48:38;;;;;;;42.38;25.00;;;;;;;;;;5005212;28;20202;-78
2022/01/12 03:51:04;;;;;;;42.35;20.88;;;;;;;;;;4990699;28;20186;-78
2022/01/12 03:53:30;;;;;;;38.95;20.83;;;;;;;;;;5004936;28;20198;-79
2022/01/12 03:55:56;;;;;;;48.10;22.15;;;;;;;;;;4985739;28;20278;-78
2022/01/12 03:58:22;;;;;;;37.47;22.30;;;;;;;;;;4991555;28;20253;-78
2022/01/12 04:00:48;;;;;;;43.72;23.38;;;;;;;;;;5004745;28;21008;-78
2022/01/12 04:03:15;;;;;;;43.55;22.08;;;;;;;;;;4990704;28;20226;-78
2022/01/12 04:08:26;;;;;;;37.08;21.50;;;;;;;;;;5016325;28;20270;-79
2022/01/12 04:10:52;;;;;;;42.03;19.75;;;;;;;;;;4985100;28;20278;-79
2022/01/12 04:13:21;;;;;;;40.75;22.67;;;;;;;;;;4991711;28;20170;-79
2022/01/12 04:15:49;;;;;;;39.78;22.95;;;;;;;;;;4989891;28;20202;-79
2022/01/12 04:18:15;;;;;;;48.55;24.85;;;;;;;;;;4990451;28;20183;-78
2022/01/12 04:20:49;;;;;;;37.28;20.88;;;;;;;;;;4989932;28;20214;-78
2022/01/12 04:23:20;;;;;;;39.08;22.23;;;;;;;;;;5003205;28;20222;-79
2022/01/12 04:25:47;;;;;;;36.28;20.33;;;;;;;;;;4986662;28;20899;-78
2022/01/12 04:28:13;;;;;;;36.35;22.02;;;;;;;;;;4991060;28;20182;-78
2022/01/12 04:30:39;;;;;;;46.45;23.55;;;;;;;;;;5004420;28;20222;-79
2022/01/12 04:33:06;;;;;;;35.65;20.42;;;;;;;;;;5004997;28;20183;-78
2022/01/12 04:35:37;;;;;;;34.35;20.58;;;;;;;;;;5004400;28;20240;-78
2022/01/12 04:38:04;;;;;;;38.50;22.83;;;;;;;;;;4986036;28;20544;-79
2022/01/12 04:40:30;;;;;;;39.92;23.00;;;;;;;;;;5019020;28;20264;-79
2022/01/12 04:42:57;;;;;;;43.70;22.08;;;;;;;;;;5018118;28;20261;-78
2022/01/12 04:50:22;;;;;;;40.15;22.00;;;;;;;;;;5020016;28;20245;-79
2022/01/12 04:52:48;;;;;;;41.95;21.48;;;;;;;;;;5020683;28;20205;-78
2022/01/12 04:55:14;;;;;;;42.50;21.60;;;;;;;;;;5021687;28;20186;-79
2022/01/12 04:57:40;;;;;;;41.20;20.95;;;;;;;;;;5021642;28;20189;-78
2022/01/12 05:00:14;;;;;;;42.80;21.38;;;;;;;;;;5021343;28;20192;-78
2022/01/12 05:08:17;;;;;;;48.53;21.25;;;;;;;;;;5006504;28;20186;-79
2022/01/12 05:13:28;;;;;;;36.38;20.27;;;;;;;;;;5023964;28;20197;-78
2022/01/12 05:15:55;;;;;;;39.10;20.13;;;;;;;;;;5020853;28;20564;-79
2022/01/12 05:18:21;;;;;;;43.92;21.85;;;;;;;;;;5020888;28;20179;-78
2022/01/12 05:20:47;;;;;;;43.00;19.60;;;;;;;;;;5021066;28;20213;-78
2022/01/12 05:23:14;;;;;;;40.65;19.83;;;;;;;;;;5021636;28;20179;-78
2022/01/12 05:25:40;;;;;;;47.58;22.10;;;;;;;;;;5021780;28;20209;-78
2022/01/12 05:28:06;;;;;;;39.05;19.02;;;;;;;;;;5022258;28;20174;-78
2022/01/12 05:30:35;;;;;;;50.53;22.80;;;;;;;;;;5020344;28;20190;-78
2022/01/12 05:33:01;;;;;;;38.33;20.27;;;;;;;;;;5021285;28;20171;-78
2022/01/12 05:35:34;;;;;;;43.50;21.60;;;;;;;;;;5021264;28;20201;-78
2022/01/12 05:38:01;;;;;;;37.40;20.98;;;;;;;;;;5004491;28;20183;-78
2022/01/12 05:40:28;;;;;;;43.58;21.38;;;;;;;;;;5018814;28;20630;-78
2022/01/12 05:42:55;;;;;;;40.25;20.45;;;;;;;;;;5021325;28;20632;-77
2022/01/12 05:45:22;;;;;;;48.30;22.42;;;;;;;;;;5019154;28;20193;-78
2022/01/12 05:50:14;;;;;;;39.55;21.48;;;;;;;;;;5019751;28;20214;-78
2022/01/12 05:52:40;;;;;;;47.90;21.00;;;;;;;;;;5025836;28;20175;-78
2022/01/12 05:55:07;;;;;;;39.30;21.58;;;;;;;;;;5024303;28;20175;-79
2022/01/12 05:57:34;;;;;;;42.08;19.95;;;;;;;;;;5025068;28;20175;-78
2022/01/12 06:00:01;;;;;;;37.42;20.58;;;;;;;;;;5021755;28;20179;-78
2022/01/12 06:02:27;;;;;;;43.35;20.80;;;;;;;;;;5022936;28;20198;-78
2022/01/12 06:04:53;;;;;;;42.72;22.20;;;;;;;;;;5022087;28;20199;-78
2022/01/12 06:07:19;;;;;;;39.38;20.45;;;;;;;;;;5021067;28;20179;-78
2022/01/12 06:09:45;;;;;;;37.58;20.23;;;;;;;;;;5021926;28;20182;-78
2022/01/12 06:12:11;;;;;;;47.65;22.95;;;;;;;;;;5023923;28;20194;-78
2022/01/12 06:14:37;;;;;;;36.67;20.48;;;;;;;;;;5021606;28;20540;-78
2022/01/12 06:17:03;;;;;;;49.33;21.67;;;;;;;;;;5022055;28;20658;-78
2022/01/12 06:19:29;;;;;;;39.30;20.38;;;;;;;;;;5026544;28;20182;-77
2022/01/12 06:21:55;;;;;;;39.70;21.95;;;;;;;;;;5024097;28;20257;-78
2022/01/12 06:24:21;;;;;;;43.15;21.10;;;;;;;;;;5023941;28;20194;-78
2022/01/12 06:26:48;;;;;;;44.13;21.67;;;;;;;;;;5023330;28;20194;-78
2022/01/12 06:31:47;;;;;;;43.58;21.45;;;;;;;;;;5025088;28;20530;-78
2022/01/12 06:34:14;;;;;;;35.33;19.48;;;;;;;;;;5024580;28;20182;-78
2022/01/12 06:36:40;;;;;;;41.15;21.27;;;;;;;;;;5023608;28;20193;-78
2022/01/12 06:39:07;;;;;;;36.30;19.60;;;;;;;;;;5023224;28;20218;-78
2022/01/12 06:41:33;;;;;;;50.17;23.33;;;;;;;;;;5021321;28;20237;-78
2022/01/12 06:43:59;;;;;;;41.85;20.73;;;;;;;;;;5021180;28;20182;-78
2022/01/12 06:46:29;;;;;;;38.13;20.60;;;;;;;;;;5023995;28;20177;-78
2022/01/12 06:48:55;;;;;;;37.03;20.13;;;;;;;;;;5023908;28;20174;-77
2022/01/12 06:51:21;;;;;;;41.15;20.75;;;;;;;;;;5021041;28;21081;-78
2022/01/12 06:53:47;;;;;;;38.55;20.38;;;;;;;;;;5023789;28;20194;-78
2022/01/12 06:56:17;;;;;;;38.08;19.95;;;;;;;;;;5022068;28;20288;-78
2022/01/12 06:58:43;;;;;;;37.03;19.98;;;;;;;;;;5023271;28;20178;-78
2022/01/12 07:01:09;;;;;;;43.50;21.13;;;;;;;;;;5022550;28;20206;-77
2022/01/12 07:03:35;;;;;;;38.67;19.70;;;;;;;;;;5021907;28;20206;-77
2022/01/12 07:06:01;;;;;;;42.80;22.00;;;;;;;;;;5022263;28;20217;-77
2022/01/12 07:08:28;;;;;;;41.60;19.65;;;;;;;;;;5023468;28;20182;-78
2022/01/12 07:10:54;;;;;;;35.00;21.77;;;;;;;;;;5021193;28;20777;-78
2022/01/12 07:13:20;;;;;;;37.53;21.58;;;;;;;;;;5024122;28;20448;-78
2022/01/12 07:15:46;;;;;;;40.80;19.27;;;;;;;;;;5021617;28;20201;-80
2022/01/12 07:18:12;;;;;;;45.35;22.02;;;;;;;;;;5023175;28;20261;-81
2022/01/12 07:20:38;;;;;;;36.50;19.90;;;;;;;;;;5019246;28;20277;-81
2022/01/12 07:23:04;;;;;;;38.00;20.90;;;;;;;;;;5018956;28;20592;-81
2022/01/12 07:25:30;;;;;;;41.13;20.58;;;;;;;;;;5006965;28;20183;-80
2022/01/12 07:27:57;;;;;;;43.38;21.65;;;;;;;;;;5018740;28;20182;-80
2022/01/12 07:30:24;;;;;;;40.63;20.30;;;;;;;;;;5013702;28;20186;-81
2022/01/12 07:32:50;;;;;;;44.38;20.00;;;;;;;;;;5018665;28;20175;-81
2022/01/12 07:35:16;;;;;;;44.13;21.90;;;;;;;;;;5013962;28;20220;-81
2022/01/12 07:37:42;;;;;;;45.28;21.40;;;;;;;;;;5004826;28;20210;-81
2022/01/12 07:40:09;;;;;;;38.13;19.90;;;;;;;;;;5012953;28;20218;-81
2022/01/12 07:42:35;;;;;;;40.17;19.60;;;;;;;;;;5016504;28;20189;-81
2022/01/12 07:45:01;;;;;;;39.85;22.38;;;;;;;;;;5013195;28;20183;-79
2022/01/12 07:47:31;;;;;;;41.67;21.27;;;;;;;;;;5021708;28;20283;-81
2022/01/12 07:49:59;;;;;;;34.22;18.13;;;;;;;;;;5004933;28;20248;-80
2022/01/12 07:52:25;;;;;;;41.65;20.65;;;;;;;;;;5021735;28;20183;-79
2022/01/12 07:54:51;;;;;;;41.42;20.42;;;;;;;;;;5020389;28;20198;-80
2022/01/12 07:57:17;;;;;;;40.92;22.75;;;;;;;;;;5021514;28;20194;-80
2022/01/12 07:59:43;;;;;;;48.35;21.60;;;;;;;;;;5021450;28;20201;-80
2022/01/12 08:02:11;;;;;;;33.78;19.75;;;;;;;;;;5019257;28;20218;-80
2022/01/12 08:04:37;;;;;;;41.72;21.63;;;;;;;;;;5017481;28;20178;-80
2022/01/12 08:07:03;;;;;;;45.35;21.63;;;;;;;;;;5022677;28;20178;-80
2022/01/12 08:09:30;;;;;;;42.20;22.13;;;;;;;;;;5021580;28;20174;-80
2022/01/12 08:11:56;;;;;;;38.75;19.35;;;;;;;;;;5020363;28;20267;-80
2022/01/12 08:14:22;;;;;;;39.35;22.08;;;;;;;;;;5021496;28;20202;-80
2022/01/12 08:16:48;;;;;;;36.70;20.63;;;;;;;;;;5018571;28;20305;-79
2022/01/12 08:19:19;;;;;;;36.25;19.30;;;;;;;;;;5017516;28;20186;-79
2022/01/12 08:21:45;;;;;;;34.70;19.15;;;;;;;;;;5017362;28;20206;-79
2022/01/12 08:24:12;;;;;;;31.70;17.10;;;;;;;;;;5017938;28;20631;-80
2022/01/12 08:26:38;;;;;;;34.85;19.48;;;;;;;;;;5015580;28;20175;-80
2022/01/12 08:29:04;;;;;;;34.85;18.48;;;;;;;;;;5021373;28;20240;-80
2022/01/12 08:31:31;;;;;;;38.85;20.63;;;;;;;;;;5022828;28;20171;-80
2022/01/12 08:33:57;;;;;;;34.55;18.70;;;;;;;;;;5015826;28;20182;-80
2022/01/12 08:36:23;;;;;;;37.33;19.05;;;;;;;;;;5017116;28;20236;-79
2022/01/12 08:38:49;;;;;;;38.50;19.63;;;;;;;;;;5020382;28;20233;-79
2022/01/12 08:41:15;;;;;;;34.47;19.65;;;;;;;;;;5017789;28;20206;-79
2022/01/12 08:43:42;;;;;;;35.63;19.45;;;;;;;;;;5021327;28;20178;-79
2022/01/12 08:46:09;;;;;;;33.97;20.48;;;;;;;;;;5013735;28;20258;-79
2022/01/12 08:48:35;;;;;;;32.88;18.33;;;;;;;;;;5013508;28;20174;-80
2022/01/12 08:51:02;;;;;;;35.85;19.08;;;;;;;;;;5020824;28;20186;-80
2022/01/12 08:53:28;;;;;;;31.60;17.80;;;;;;;;;;5020913;28;20254;-79
2022/01/12 08:55:54;;;;;;;35.95;19.60;;;;;;;;;;5016872;28;20222;-80
2022/01/12 08:58:20;;;;;;;36.45;20.23;;;;;;;;;;5022291;28;20179;-79
2022/01/12 09:00:46;;;;;;;43.78;19.00;;;;;;;;;;5020634;28;20206;-79
2022/01/12 09:03:13;;;;;;;40.80;19.65;;;;;;;;;;5021063;28;20193;-79
2022/01/12 09:05:39;;;;;;;36.92;20.27;;;;;;;;;;5021137;28;20194;-79
2022/01/12 09:08:06;;;;;;;32.33;17.30;;;;;;;;;;5018054;28;20650;-80
2022/01/12 09:10:32;;;;;;;32.58;18.50;;;;;;;;;;5015023;28;20186;-80
2022/01/12 09:12:58;;;;;;;35.40;20.00;;;;;;;;;;5015835;28;20175;-80
2022/01/12 09:15:25;;;;;;;33.72;17.48;;;;;;;;;;5018876;28;20245;-80
2022/01/12 09:17:51;;;;;;;33.00;16.88;;;;;;;;;;5019909;28;20186;-80
2022/01/12 09:20:17;;;;;;;39.10;22.00;;;;;;;;;;5021273;28;20201;-80
2022/01/12 09:22:43;;;;;;;35.40;19.23;;;;;;;;;;5019993;28;20194;-80
2022/01/12 09:25:10;;;;;;;34.88;20.02;;;;;;;;;;5021697;28;20162;-80
2022/01/12 09:27:37;;;;;;;38.95;21.20;;;;;;;;;;5024399;28;20186;-80
2022/01/12 09:30:04;;;;;;;42.88;23.27;;;;;;;;;;5022978;28;20528;-80
2022/01/12 09:32:30;;;;;;;43.00;23.67;;;;;;;;;;5024609;28;20179;-80
2022/01/12 09:34:56;;;;;;;49.83;22.02;;;;;;;;;;5024423;28;20257;-80
2022/01/12 09:37:22;;;;;;;47.72;23.00;;;;;;;;;;5026432;28;20670;-79
2022/01/12 09:39:48;;;;;;;39.63;22.17;;;;;;;;;;5023721;28;20245;-80
2022/01/12 09:42:14;;;;;;;45.95;21.35;;;;;;;;;;5022151;28;20206;-80
2022/01/12 09:44:46;;;;;;;52.88;22.80;;;;;;;;;;5024785;28;20190;-80
2022/01/12 09:47:12;;;;;;;55.45;26.95;;;;;;;;;;5008218;28;20242;-80
2022/01/12 09:49:38;;;;;;;49.15;23.67;;;;;;;;;;5010710;28;20171;-80
2022/01/12 09:52:05;;;;;;;59.20;25.08;;;;;;;;;;5024413;28;20174;-80
2022/01/12 09:54:31;;;;;;;42.95;21.80;;;;;;;;;;5023848;28;20182;-80
2022/01/12 09:57:00;;;;;;;50.72;24.80;;;;;;;;;;5024665;28;20190;-80
2022/01/12 09:59:27;;;;;;;45.75;23.80;;;;;;;;;;5024209;28;20190;-80
2022/01/12 10:01:54;;;;;;;51.03;25.80;;;;;;;;;;5023796;28;20214;-80
2022/01/12 10:04:21;;;;;;;47.28;24.38;;;;;;;;;;5023560;28;20175;-80
2022/01/12 10:06:52;;;;;;;50.45;28.17;;;;;;;;;;5023409;28;20186;-80
2022/01/12 10:09:23;;;;;;;48.85;24.25;;;;;;;;;;5023857;28;20182;-80
2022/01/12 10:11:56;;;;;;;54.92;28.60;;;;;;;;;;5019413;28;20218;-79
2022/01/12 10:14:23;;;;;;;53.85;26.50;;;;;;;;;;5023648;28;20210;-80
2022/01/12 10:16:52;;;;;;;54.92;27.75;;;;;;;;;;5022098;28;20178;-80
2022/01/12 10:19:28;;;;;;;57.85;25.60;;;;;;;;;;5024992;28;20186;-80
2022/01/12 10:21:54;;;;;;;52.15;26.13;;;;;;;;;;5022263;28;20210;-81
2022/01/12 10:24:22;;;;;;;55.05;25.50;;;;;;;;;;5023851;28;20213;-80
2022/01/12 10:26:48;;;;;;;54.95;27.60;;;;;;;;;;5022818;28;20191;-80
2022/01/12 10:29:26;;;;;;;51.35;25.75;;;;;;;;;;5023796;28;20189;-80
2022/01/12 10:32:02;;;;;;;53.75;25.92;;;;;;;;;;5023225;28;20198;-80
2022/01/12 10:34:30;;;;;;;50.35;25.70;;;;;;;;;;5017199;28;20561;-80
2022/01/12 10:36:59;;;;;;;48.15;26.23;;;;;;;;;;5020898;28;20251;-80
2022/01/12 10:39:29;;;;;;;57.03;30.25;;;;;;;;;;5015837;28;20252;-80
2022/01/12 10:41:55;;;;;;;50.35;28.33;;;;;;;;;;4991329;28;20211;-80
2022/01/12 10:44:25;;;;;;;58.13;28.83;;;;;;;;;;4988386;28;20255;-80
2022/01/12 10:47:01;;;;;;;61.17;28.92;;;;;;;;;;5001507;28;20184;-80
2022/01/12 10:49:27;;;;;;;58.80;28.73;;;;;;;;;;4998881;28;20217;-80
2022/01/12 10:51:54;;;;;;;54.38;27.85;;;;;;;;;;4999513;28;20184;-80
2022/01/12 10:54:21;;;;;;;55.58;26.88;;;;;;;;;;4985909;28;20198;-80
2022/01/12 10:56:47;;;;;;;67.78;30.45;;;;;;;;;;4991473;28;20209;-80
2022/01/12 10:59:20;;;;;;;57.97;29.63;;;;;;;;;;5001302;28;20188;-80
2022/01/12 11:01:46;;;;;;;60.20;31.17;;;;;;;;;;4988092;28;20568;-81
2022/01/12 11:04:13;;;;;;;60.17;30.88;;;;;;;;;;4987617;28;20207;-80
2022/01/12 11:06:39;;;;;;;58.55;30.02;;;;;;;;;;4986017;28;20202;-80
2022/01/12 11:09:05;;;;;;;57.13;29.00;;;;;;;;;;4991167;28;20194;-81
2022/01/12 11:11:32;;;;;;;59.55;27.92;;;;;;;;;;4997122;28;20182;-80
2022/01/12 11:13:59;;;;;;;59.83;28.95;;;;;;;;;;4985185;28;20184;-80
2022/01/12 11:16:28;;;;;;;52.95;29.35;;;;;;;;;;4992327;28;20195;-81
2022/01/12 11:18:55;;;;;;;46.58;26.30;;;;;;;;;;4986701;28;20301;-80
2022/01/12 11:21:24;;;;;;;50.70;27.25;;;;;;;;;;4983213;28;20207;-80
2022/01/12 11:23:53;;;;;;;46.22;28.25;;;;;;;;;;4988594;28;20190;-80
2022/01/12 11:26:19;;;;;;;53.42;26.55;;;;;;;;;;4969844;28;20183;-80
2022/01/12 11:28:46;;;;;;;53.35;29.48;;;;;;;;;;4975894;28;20190;-80
2022/01/12 11:31:15;;;;;;;48.25;26.42;;;;;;;;;;4984680;28;20203;-80
2022/01/12 11:33:42;;;;;;;48.40;28.27;;;;;;;;;;4988039;28;20209;-80
2022/01/12 11:36:41;;;;;;;49.63;29.70;;;;;;;;;;4992606;28;20273;-80
2022/01/12 11:39:11;;;;;;;49.63;27.42;;;;;;;;;;4916946;29;20221;-80
2022/01/12 11:41:43;;;;;;;44.90;25.52;;;;;;;;;;4913948;29;20228;-80
2022/01/12 11:44:13;;;;;;;49.55;27.40;;;;;;;;;;4938956;29;20216;-80
2022/01/12 11:46:46;;;;;;;52.83;25.58;;;;;;;;;;4925859;29;20194;-80
2022/01/12 11:49:24;;;;;;;48.40;27.20;;;;;;;;;;4912953;29;20229;-80
2022/01/12 11:51:50;;;;;;;43.08;23.10;;;;;;;;;;4912171;29;20193;-79
2022/01/12 11:54:17;;;;;;;39.00;23.05;;;;;;;;;;4915260;29;20193;-80
2022/01/12 11:56:52;;;;;;;38.13;22.70;;;;;;;;;;4907989;29;20280;-80
2022/01/12 11:59:19;;;;;;;44.15;23.42;;;;;;;;;;4910458;29;20221;-79
2022/01/12 12:01:48;;;;;;;38.05;23.77;;;;;;;;;;4909927;29;20210;-80
2022/01/12 12:04:25;;;;;;;42.97;25.30;;;;;;;;;;4912280;29;20194;-80
2022/01/12 12:07:01;;;;;;;46.35;24.52;;;;;;;;;;4928363;29;20211;-79
2022/01/12 12:09:35;;;;;;;47.88;27.25;;;;;;;;;;4931679;29;20201;-79
2022/01/12 12:12:01;;;;;;;48.20;26.55;;;;;;;;;;4926949;29;20197;-79
2022/01/12 12:14:27;;;;;;;38.17;24.75;;;;;;;;;;4947980;28;20692;-79
2022/01/12 12:16:53;;;;;;;47.70;26.13;;;;;;;;;;4992985;28;20203;-79
2022/01/12 12:19:19;;;;;;;43.75;25.10;;;;;;;;;;4990764;28;20190;-79
2022/01/12 12:21:48;;;;;;;42.88;24.67;;;;;;;;;;5004613;28;20210;-79
2022/01/12 12:24:15;;;;;;;47.80;26.80;;;;;;;;;;4990259;28;20238;-79
2022/01/12 12:26:52;;;;;;;46.35;26.98;;;;;;;;;;4986833;28;20187;-79
2022/01/12 12:29:28;;;;;;;42.13;23.30;;;;;;;;;;4999737;28;20175;-79
2022/01/12 12:31:57;;;;;;;45.60;25.45;;;;;;;;;;4985162;28;20195;-79
2022/01/12 12:34:24;;;;;;;47.78;25.98;;;;;;;;;;4990815;28;20183;-79
2022/01/12 12:37:01;;;;;;;40.95;24.02;;;;;;;;;;4989656;28;20187;-79
2022/01/12 12:39:29;;;;;;;40.60;24.63;;;;;;;;;;5002548;28;20224;-79
2022/01/12 12:41:55;;;;;;;42.20;25.50;;;;;;;;;;5008812;28;20217;-80
2022/01/12 12:44:25;;;;;;;35.50;22.70;;;;;;;;;;5014090;28;20186;-80
2022/01/12 12:46:52;;;;;;;40.40;25.63;;;;;;;;;;5008205;28;20194;-80
2022/01/12 12:49:18;;;;;;;41.20;23.23;;;;;;;;;;5019225;28;20179;-80
2022/01/12 12:51:44;;;;;;;51.38;25.35;;;;;;;;;;5015727;28;20186;-80
2022/01/12 12:54:13;;;;;;;45.83;27.13;;;;;;;;;;5016039;28;20217;-80
2022/01/12 12:56:42;;;;;;;37.83;23.08;;;;;;;;;;5011143;28;20198;-80
2022/01/12 12:59:08;;;;;;;42.70;25.00;;;;;;;;;;5006848;28;20544;-80
2022/01/12 13:01:34;;;;;;;40.58;23.90;;;;;;;;;;5031082;28;20248;-80
2022/01/12 13:04:02;;;;;;;39.60;22.98;;;;;;;;;;5011660;28;20254;-80
2022/01/12 13:06:32;;;;;;;41.28;23.70;;;;;;;;;;5023412;28;20254;-80
2022/01/12 13:09:03;;;;;;;39.90;24.05;;;;;;;;;;5025924;28;20186;-80
2022/01/12 13:11:37;;;;;;;37.10;23.23;;;;;;;;;;5025079;28;20183;-80
2022/01/12 13:14:04;;;;;;;45.65;24.42;;;;;;;;;;5013462;28;20659;-79
2022/01/12 13:16:31;;;;;;;43.00;24.30;;;;;;;;;;5025357;28;20189;-80
2022/01/12 13:19:07;;;;;;;42.42;23.55;;;;;;;;;;5022863;28;20202;-79
2022/01/12 13:21:35;;;;;;;43.83;24.05;;;;;;;;;;5025083;28;20202;-79
2022/01/12 13:24:01;;;;;;;45.05;25.25;;;;;;;;;;5022030;28;20189;-79
2022/01/12 13:26:32;;;;;;;42.13;25.50;;;;;;;;;;5024432;28;20197;-80
2022/01/12 13:29:00;;;;;;;34.92;22.08;;;;;;;;;;5022664;28;20210;-80
2022/01/12 13:31:28;;;;;;;35.67;23.77;;;;;;;;;;5025922;28;20190;-79
2022/01/12 13:33:54;;;;;;;34.85;22.45;;;;;;;;;;5024959;28;20542;-79
2022/01/12 13:36:20;;;;;;;36.03;22.05;;;;;;;;;;5025008;28;20310;-80
2022/01/12 13:38:48;;;;;;;32.92;20.48;;;;;;;;;;5021053;28;20237;-79
2022/01/12 13:41:17;;;;;;;41.10;22.77;;;;;;;;;;5024245;28;20217;-80
2022/01/12 13:43:50;;;;;;;36.08;21.40;;;;;;;;;;5018824;28;20183;-80
2022/01/12 13:46:17;;;;;;;36.10;20.35;;;;;;;;;;5023117;28;20185;-80
2022/01/12 13:49:09;;;;;;;35.05;19.83;;;;;;;;;;5022738;28;20198;-80
2022/01/12 13:51:38;;;;;;;34.15;20.95;;;;;;;;;;5020205;28;20194;-80
2022/01/12 13:54:05;;;;;;;34.70;19.83;;;;;;;;;;5024054;28;20352;-80
2022/01/12 13:56:35;;;;;;;28.35;18.80;;;;;;;;;;5024023;28;20249;-80
2022/01/12 13:59:01;;;;;;;27.98;18.73;;;;;;;;;;5006793;28;20216;-79
2022/01/12 14:01:32;;;;;;;29.63;19.67;;;;;;;;;;5025618;28;20218;-80
2022/01/12 14:04:07;;;;;;;29.17;19.55;;;;;;;;;;5023724;28;20256;-80
2022/01/12 14:06:38;;;;;;;26.92;19.58;;;;;;;;;;5024420;28;20204;-80
2022/01/12 14:09:09;;;;;;;30.23;20.42;;;;;;;;;;5024510;28;20205;-80
2022/01/12 14:11:37;;;;;;;29.20;19.95;;;;;;;;;;5024142;28;20195;-80
2022/01/12 14:14:04;;;;;;;30.17;21.30;;;;;;;;;;5023040;28;20640;-80
2022/01/12 14:16:31;;;;;;;30.75;20.77;;;;;;;;;;5024818;28;20191;-79
2022/01/12 14:18:58;;;;;;;33.47;22.40;;;;;;;;;;5022866;28;20249;-80
2022/01/12 14:21:24;;;;;;;37.90;23.52;;;;;;;;;;5023886;28;20206;-80
2022/01/12 14:23:50;;;;;;;30.50;20.95;;;;;;;;;;5024110;28;20283;-80
2022/01/12 14:26:24;;;;;;;36.15;21.83;;;;;;;;;;5021660;28;20187;-80
2022/01/12 14:28:50;;;;;;;36.10;21.83;;;;;;;;;;5022158;28;20294;-80
2022/01/12 14:31:16;;;;;;;38.20;22.10;;;;;;;;;;5025001;28;20274;-80
2022/01/12 14:33:42;;;;;;;33.78;20.40;;;;;;;;;;5019489;28;20589;-80
2022/01/12 14:36:08;;;;;;;35.95;21.45;;;;;;;;;;5011288;28;20193;-80
2022/01/12 14:38:34;;;;;;;32.35;21.88;;;;;;;;;;5015531;28;20186;-81
2022/01/12 14:41:00;;;;;;;32.47;21.70;;;;;;;;;;5016747;28;20302;-80
2022/01/12 14:43:29;;;;;;;34.75;22.05;;;;;;;;;;5011006;28;20269;-80
2022/01/12 14:45:56;;;;;;;36.33;21.80;;;;;;;;;;5016128;28;20179;-79
2022/01/12 14:48:25;;;;;;;38.95;24.98;;;;;;;;;;5015891;28;20207;-80
2022/01/12 14:50:51;;;;;;;33.88;22.80;;;;;;;;;;5020915;28;20210;-80
2022/01/12 14:53:21;;;;;;;40.78;22.42;;;;;;;;;;5021543;28;20334;-80
2022/01/12 14:55:47;;;;;;;35.60;24.00;;;;;;;;;;5019316;28;20171;-80
2022/01/12 14:58:14;;;;;;;39.38;23.55;;;;;;;;;;5009128;28;20691;-80
2022/01/12 15:00:40;;;;;;;35.78;22.58;;;;;;;;;;5018014;28;22126;-80
2022/01/12 15:03:08;;;;;;;39.58;24.70;;;;;;;;;;5008658;28;20560;-80
2022/01/12 15:05:34;;;;;;;39.65;25.83;;;;;;;;;;5010068;28;20187;-80
2022/01/12 15:08:00;;;;;;;35.65;22.83;;;;;;;;;;5016427;28;20179;-80
2022/01/12 15:10:27;;;;;;;37.10;23.27;;;;;;;;;;5013040;28;20167;-80
2022/01/12 15:12:55;;;;;;;33.95;23.38;;;;;;;;;;5018345;28;20253;-80
2022/01/12 15:15:21;;;;;;;37.15;22.35;;;;;;;;;;5014315;28;20187;-81
2022/01/12 15:17:47;;;;;;;37.97;23.73;;;;;;;;;;5013948;28;20194;-81
2022/01/12 15:20:15;;;;;;;33.97;20.90;;;;;;;;;;5021991;28;20189;-81
2022/01/12 15:22:43;;;;;;;34.17;22.77;;;;;;;;;;5023499;28;20202;-81
2022/01/12 15:25:09;;;;;;;35.13;22.42;;;;;;;;;;5018847;28;20182;-80
2022/01/12 15:27:36;;;;;;;35.28;22.33;;;;;;;;;;5014195;28;20430;-81
2022/01/12 15:30:04;;;;;;;39.90;23.40;;;;;;;;;;5016571;28;20676;-80
2022/01/12 15:32:30;;;;;;;38.50;22.73;;;;;;;;;;5022898;28;20714;-81
2022/01/12 15:34:57;;;;;;;37.05;22.55;;;;;;;;;;5018338;28;20218;-81
2022/01/12 15:37:24;;;;;;;30.30;21.30;;;;;;;;;;5019959;28;20182;-81